Huvudsida
METAR-TAF:

METAR-TAF

Flygplatser :

Saskatoon, Saskatchewan, Kanada

latitud: 52-10N, longitud: 106-41W, höjd: 501 m

Aktuellt väderrapport

Denna rapport gjordes för 59 minuter sedan, klockan 08:00 UTC
Vind 15 kt från väst i byarna ända upp till 21 kt
Temperatur -7°C
Fuktighet 79%
Tryck 1017 hPa
Sikt: 24.1 km
Klar himmel

METAR: CYXE 160800Z 28015G21KT 15SM SKC M07/M10 A3004 RMK PRESRR SLP203

Tid: 02:59 (08:59 UTC)

Väderprognos

Denna rapport gjordes för 3 timmar och 21 minuter sedan, klockan 05:38 UTC
Prognos gäller från 16 kl. 06 UTC till 17 kl. 06 UTC
Vind 15 kt från väst/nordväst i byarna ända upp till 25 kt
Sikt: 10 km
Få moln på en höjd av 10000 ft
Från 16 kl. 1200 UTC
Vind 10 kt från väst/nordväst
Sikt: 10 km
Spridda moln på en höjd av 24000 ft
Blir
från 16 kl. 21 UTC till 16 kl. 23 UTC
Vind 10 kt från ost/sydost

TAF: CYXE 160538Z 1606/1706 29015G25KT P6SM FEW100 FM161200 29010KT P6SM SCT240 BECMG 1621/1623 11010KT RMK NXT FCST BY 161200Z

Aktuella väderrapporter och prognoser från 4000 flygplatser (METAR- och TAF-rapporter).

De tillgängliga stationerna syns som gula och röda prickar på kartan.

För musen över prickarna för att se namnen på stationerna.

Klicka sedan för att få väderrapporter och prognoser.

För att ändra kartan: Klicka på de gröna knapparna med ett svart kors på för att zooma in; den gröna knappen med ett streck på för att zooma ut; eller på de gröna pilarna för angränsande kartor.


METAR-TAF: